AirNav   Air Wisconsin pilot careers
 
 452 users online  

10MU Freeman Neosho Hospital Heliport
Neosho, Missouri, USA

GOING TO NEOSHO?


FAA INFORMATION EFFECTIVE 03 JANUARY 2019

Location

FAA Identifier: 10MU
Lat/Long: 36-51-57.1300N / 094-22-11.5200W
36-51.952167N / 094-22.192000W
36.8658694 / -94.3698667
(estimated)
Elevation: 1110 ft. / 338 m (estimated)
Time zone: UTC -6 (UTC -5 during Daylight Saving Time)
Zip code: 64850

Heliport Operations

Heliport use: Private use. Permission required prior to landing
Activation date: 03/2003
Control tower: no
ARTCC: KANSAS CITY CENTER
FSS: COLUMBIA FLIGHT SERVICE STATION
Attendance: UNATNDD
Segmented circle: no
Lights: FOR PERIMETER LGTS CALL 417-451-1234.

Heliport Communications

WX AWOS-3 at HFJ (17 nm E): 118.275 (417-476-2613)
WX ASOS at JLN (18 nm N): 120.85 (417-623-8892)

Nearby radio navigation aids

VOR radial/distance  VOR name  Freq  Var
EOSr059/3.5NEOSHO VOR/DME117.3007E
RZCr338/39.0RAZORBACK VORTAC116.4004E

Heliport Services

Runway Information

Helipad H1

Dimensions: 65 x 65 ft. / 20 x 20 m
Surface: asphalt
Runway edge lights: PERI
Latitude: 36-51.952167N
Longitude: 094-22.192000W
Elevation: 1110.0 ft.
Traffic pattern: leftleft

Heliport Ownership and Management from official FAA records

Ownership: Privately-owned
Owner: FREEMAN NEOSHO HOSPITAL
113 W. HICKORY ST
NEOSHO, MO 64850
Phone 417-451-1234
Manager: JOE YUST
113 W. HICKORY ST
NEOSHO, MO 64850
Phone 417-451-1234

Additional Remarks

A52-H1 15 FT ELEVATOR SHAFT 45 FT NORTH OF HELIPAD.
MEDICAL
OWNER DESIRES HELIPORT NOT BE CHARTED.

Instrument Procedures

There are no published instrument procedures at 10MU.

Some nearby airports with instrument procedures:

KEOS - Neosho Hugh Robinson Airport (3 nm S)
KHFJ - Monett Regional Airport (17 nm E)
KJLN - Joplin Regional Airport (18 nm N)
KGMJ - Grove Municipal Airport (24 nm SW)
94K - Cassville Municipal Airport (25 nm SE)
 
Loc | Ops | Rwys | IFR | FBO | Links
Com | Nav | Svcs | Stats | Notes

Kansas City Aviation Department
 
Area around 10MU (Freeman Neosho Hospital Heliport)
 
Road maps at: MapQuest Bing Google
 
Aerial photo
No photo
 
Sectional chart

 
Airport distance calculator
Flying to Freeman Neosho Hospital Heliport? Find the distance to fly.

From to 10MU

Sunrise and sunset
Times for 16-Jan-2019
 Local
(UTC-6)
 Zulu
(UTC)
Morning civil twilight07:0213:02
Sunrise07:3013:30
Sunset17:2423:24
Evening civil twilight17:5323:53

Current date and time
Zulu (UTC)  16-Jan-2019 07:06:09
Local (UTC-6)  16-Jan-2019 01:06:09
 
METAR
KEOS 
3nm S 
SuperAWOS
160635Z AUTO 22006KT 10SM 04/04 A3018
KHFJ 
17nm E 
160655Z AUTO 23007KT 10SM SCT025 01/01 A3019 RMK AO2
KJLN 
18nm N 
160653Z AUTO 22010KT 9SM CLR 04/02 A3019 RMK AO2 SLP227 T00440017
TAF
KJLN 
18nm N 
160520Z 1606/1706 20009KT P6SM SKC FM160730 21008KT P6SM OVC025 FM161000 21007KT P6SM OVC018 FM162000 18006KT P6SM OVC020 PROB30 1701/1705 4SM -RA OVC008
NOTAMs
Click for the latest NOTAMs
NOTAMs are issued by the DoD/FAA and will open in a separate window not controlled by AirNav.

 

 
 

Would you like to see your business listed on this page?

 If your business provides an interesting product or service to pilots, flight crews, aircraft, or users of the Freeman Neosho Hospital Heliport, you should consider listing it here.  To start the listing process, click on the button below
 
Add a business
 

Other Pages about Freeman Neosho Hospital Heliport

Update a link
 
Copyright © AirNav, LLC. All rights reserved. Privacy Policy  Contact